sensor_id;sensor_type;location;lat;lon;timestamp;temperature;humidity
5850;DHT22;2951;47.712;9.400;2023-05-09T00:00:04;15.10;99.90
5850;DHT22;2951;47.712;9.400;2023-05-09T00:02:31;15.10;99.90
5850;DHT22;2951;47.712;9.400;2023-05-09T00:05:00;15.10;99.90
5850;DHT22;2951;47.712;9.400;2023-05-09T00:07:29;15.00;99.90
5850;DHT22;2951;47.712;9.400;2023-05-09T00:09:57;15.00;99.90
5850;DHT22;2951;47.712;9.400;2023-05-09T00:12:24;15.10;99.90
5850;DHT22;2951;47.712;9.400;2023-05-09T00:14:50;15.00;99.90
5850;DHT22;2951;47.712;9.400;2023-05-09T00:17:17;15.00;99.90
5850;DHT22;2951;47.712;9.400;2023-05-09T00:19:44;15.00;99.90
5850;DHT22;2951;47.712;9.400;2023-05-09T00:22:10;15.00;99.90
5850;DHT22;2951;47.712;9.400;2023-05-09T00:24:38;14.90;99.90
5850;DHT22;2951;47.712;9.400;2023-05-09T00:27:05;14.90;99.90
5850;DHT22;2951;47.712;9.400;2023-05-09T00:29:31;14.80;99.90
5850;DHT22;2951;47.712;9.400;2023-05-09T00:31:58;14.80;99.90
5850;DHT22;2951;47.712;9.400;2023-05-09T00:34:25;14.70;99.90
5850;DHT22;2951;47.712;9.400;2023-05-09T00:36:52;14.70;99.90
5850;DHT22;2951;47.712;9.400;2023-05-09T00:39:18;14.60;99.90
5850;DHT22;2951;47.712;9.400;2023-05-09T00:41:46;14.60;99.90
5850;DHT22;2951;47.712;9.400;2023-05-09T00:44:13;14.50;99.90
5850;DHT22;2951;47.712;9.400;2023-05-09T00:46:39;14.50;99.90
5850;DHT22;2951;47.712;9.400;2023-05-09T00:49:07;14.40;99.90
5850;DHT22;2951;47.712;9.400;2023-05-09T00:51:34;14.40;99.90
5850;DHT22;2951;47.712;9.400;2023-05-09T00:54:01;14.40;99.90
5850;DHT22;2951;47.712;9.400;2023-05-09T00:56:28;14.40;99.90
5850;DHT22;2951;47.712;9.400;2023-05-09T00:58:55;14.40;99.90
5850;DHT22;2951;47.712;9.400;2023-05-09T01:01:22;14.40;99.90
5850;DHT22;2951;47.712;9.400;2023-05-09T01:03:48;14.50;99.90
5850;DHT22;2951;47.712;9.400;2023-05-09T01:06:35;14.50;99.90
5850;DHT22;2951;47.712;9.400;2023-05-09T01:09:23;14.50;99.90
5850;DHT22;2951;47.712;9.400;2023-05-09T01:17:00;14.40;99.90
5850;DHT22;2951;47.712;9.400;2023-05-09T01:21:59;14.50;99.90
5850;DHT22;2951;47.712;9.400;2023-05-09T01:29:44;14.60;99.90
5850;DHT22;2951;47.712;9.400;2023-05-09T01:32:19;14.70;99.90
5850;DHT22;2951;47.712;9.400;2023-05-09T01:34:47;14.70;99.90
5850;DHT22;2951;47.712;9.400;2023-05-09T01:37:15;14.70;99.90
5850;DHT22;2951;47.712;9.400;2023-05-09T01:39:44;14.70;99.90
5850;DHT22;2951;47.712;9.400;2023-05-09T01:42:11;14.70;99.90
5850;DHT22;2951;47.712;9.400;2023-05-09T01:44:39;14.70;99.90
5850;DHT22;2951;47.712;9.400;2023-05-09T01:47:06;14.60;99.90
5850;DHT22;2951;47.712;9.400;2023-05-09T01:49:34;14.60;99.90
5850;DHT22;2951;47.712;9.400;2023-05-09T01:52:03;14.60;99.90
5850;DHT22;2951;47.712;9.400;2023-05-09T01:54:30;14.70;99.90
5850;DHT22;2951;47.712;9.400;2023-05-09T01:56:58;14.70;99.90
5850;DHT22;2951;47.712;9.400;2023-05-09T01:59:25;14.70;99.90
5850;DHT22;2951;47.712;9.400;2023-05-09T02:01:53;14.60;99.90
5850;DHT22;2951;47.712;9.400;2023-05-09T02:04:21;14.60;99.90
5850;DHT22;2951;47.712;9.400;2023-05-09T02:06:49;14.60;99.90
5850;DHT22;2951;47.712;9.400;2023-05-09T02:09:19;14.60;99.90
5850;DHT22;2951;47.712;9.400;2023-05-09T02:11:46;14.60;99.90
5850;DHT22;2951;47.712;9.400;2023-05-09T02:14:13;14.60;99.90
5850;DHT22;2951;47.712;9.400;2023-05-09T02:16:41;14.60;99.90
5850;DHT22;2951;47.712;9.400;2023-05-09T02:19:08;14.50;99.90
5850;DHT22;2951;47.712;9.400;2023-05-09T02:21:35;14.50;99.90
5850;DHT22;2951;47.712;9.400;2023-05-09T02:24:01;14.60;99.90
5850;DHT22;2951;47.712;9.400;2023-05-09T02:26:28;14.60;99.90
5850;DHT22;2951;47.712;9.400;2023-05-09T02:28:55;14.60;99.90
5850;DHT22;2951;47.712;9.400;2023-05-09T02:31:23;14.60;99.90
5850;DHT22;2951;47.712;9.400;2023-05-09T02:33:51;14.60;99.90
5850;DHT22;2951;47.712;9.400;2023-05-09T02:36:18;14.60;99.90
5850;DHT22;2951;47.712;9.400;2023-05-09T02:38:46;14.50;99.90
5850;DHT22;2951;47.712;9.400;2023-05-09T02:41:13;14.40;99.90
5850;DHT22;2951;47.712;9.400;2023-05-09T02:43:40;14.40;99.90
5850;DHT22;2951;47.712;9.400;2023-05-09T02:46:07;14.40;99.90
5850;DHT22;2951;47.712;9.400;2023-05-09T02:48:35;14.50;99.90
5850;DHT22;2951;47.712;9.400;2023-05-09T02:51:02;14.50;99.90
5850;DHT22;2951;47.712;9.400;2023-05-09T02:53:29;14.60;99.90
5850;DHT22;2951;47.712;9.400;2023-05-09T02:55:56;14.60;99.90
5850;DHT22;2951;47.712;9.400;2023-05-09T02:58:24;14.60;99.90
5850;DHT22;2951;47.712;9.400;2023-05-09T03:00:50;14.60;99.90
5850;DHT22;2951;47.712;9.400;2023-05-09T03:03:17;14.60;99.90
5850;DHT22;2951;47.712;9.400;2023-05-09T03:05:44;14.60;99.90
5850;DHT22;2951;47.712;9.400;2023-05-09T03:08:12;14.60;99.90
5850;DHT22;2951;47.712;9.400;2023-05-09T03:10:38;14.60;99.90
5850;DHT22;2951;47.712;9.400;2023-05-09T03:13:05;14.60;99.90
5850;DHT22;2951;47.712;9.400;2023-05-09T03:15:32;14.60;99.90
5850;DHT22;2951;47.712;9.400;2023-05-09T03:17:58;14.50;99.90
5850;DHT22;2951;47.712;9.400;2023-05-09T03:20:25;14.40;99.90
5850;DHT22;2951;47.712;9.400;2023-05-09T03:22:52;14.40;99.90
5850;DHT22;2951;47.712;9.400;2023-05-09T03:25:19;14.50;99.90
5850;DHT22;2951;47.712;9.400;2023-05-09T03:27:46;14.40;99.90
5850;DHT22;2951;47.712;9.400;2023-05-09T03:30:13;14.30;99.90
5850;DHT22;2951;47.712;9.400;2023-05-09T03:32:39;14.20;99.90
5850;DHT22;2951;47.712;9.400;2023-05-09T03:35:06;14.30;99.90
5850;DHT22;2951;47.712;9.400;2023-05-09T03:37:33;14.30;99.90
5850;DHT22;2951;47.712;9.400;2023-05-09T03:40:00;14.20;99.90
5850;DHT22;2951;47.712;9.400;2023-05-09T03:42:26;14.30;99.90
5850;DHT22;2951;47.712;9.400;2023-05-09T03:44:53;14.40;99.90
5850;DHT22;2951;47.712;9.400;2023-05-09T03:47:20;14.50;99.90
5850;DHT22;2951;47.712;9.400;2023-05-09T03:49:47;14.50;99.90
5850;DHT22;2951;47.712;9.400;2023-05-09T03:52:13;14.50;99.90
5850;DHT22;2951;47.712;9.400;2023-05-09T03:54:40;14.50;99.90
5850;DHT22;2951;47.712;9.400;2023-05-09T03:57:07;14.40;99.90
5850;DHT22;2951;47.712;9.400;2023-05-09T03:59:33;14.40;99.90
5850;DHT22;2951;47.712;9.400;2023-05-09T04:02:00;14.30;99.90
5850;DHT22;2951;47.712;9.400;2023-05-09T04:04:27;14.10;99.90
5850;DHT22;2951;47.712;9.400;2023-05-09T04:06:53;14.10;99.90
5850;DHT22;2951;47.712;9.400;2023-05-09T04:09:20;14.20;99.90
5850;DHT22;2951;47.712;9.400;2023-05-09T04:11:47;14.30;99.90
5850;DHT22;2951;47.712;9.400;2023-05-09T04:14:14;14.30;99.90
5850;DHT22;2951;47.712;9.400;2023-05-09T04:16:40;14.40;99.90
5850;DHT22;2951;47.712;9.400;2023-05-09T04:19:07;14.40;99.90
5850;DHT22;2951;47.712;9.400;2023-05-09T04:21:34;14.50;99.90
5850;DHT22;2951;47.712;9.400;2023-05-09T04:24:01;14.50;99.90
5850;DHT22;2951;47.712;9.400;2023-05-09T04:26:27;14.60;99.90
5850;DHT22;2951;47.712;9.400;2023-05-09T04:28:55;14.60;99.90
5850;DHT22;2951;47.712;9.400;2023-05-09T04:31:22;14.70;99.90
5850;DHT22;2951;47.712;9.400;2023-05-09T04:33:49;14.70;99.90
5850;DHT22;2951;47.712;9.400;2023-05-09T04:36:16;14.70;99.90
5850;DHT22;2951;47.712;9.400;2023-05-09T04:38:42;14.70;99.90
5850;DHT22;2951;47.712;9.400;2023-05-09T04:41:09;14.70;99.90
5850;DHT22;2951;47.712;9.400;2023-05-09T04:43:36;14.70;99.90
5850;DHT22;2951;47.712;9.400;2023-05-09T04:46:03;14.70;99.90
5850;DHT22;2951;47.712;9.400;2023-05-09T04:48:29;14.70;99.90
5850;DHT22;2951;47.712;9.400;2023-05-09T04:50:56;14.70;99.90
5850;DHT22;2951;47.712;9.400;2023-05-09T04:53:23;14.80;99.90
5850;DHT22;2951;47.712;9.400;2023-05-09T04:55:49;14.80;99.90
5850;DHT22;2951;47.712;9.400;2023-05-09T04:58:17;14.90;99.90
5850;DHT22;2951;47.712;9.400;2023-05-09T05:00:44;15.00;99.90
5850;DHT22;2951;47.712;9.400;2023-05-09T05:03:11;15.00;99.90
5850;DHT22;2951;47.712;9.400;2023-05-09T05:05:38;15.00;99.90
5850;DHT22;2951;47.712;9.400;2023-05-09T05:08:06;15.10;99.90
5850;DHT22;2951;47.712;9.400;2023-05-09T05:10:33;15.10;99.90
5850;DHT22;2951;47.712;9.400;2023-05-09T05:13:00;15.00;99.90
5850;DHT22;2951;47.712;9.400;2023-05-09T05:15:26;15.10;99.90
5850;DHT22;2951;47.712;9.400;2023-05-09T05:17:53;15.10;99.90
5850;DHT22;2951;47.712;9.400;2023-05-09T05:20:20;15.10;99.90
5850;DHT22;2951;47.712;9.400;2023-05-09T05:22:47;15.10;99.90
5850;DHT22;2951;47.712;9.400;2023-05-09T05:25:13;15.20;99.90
5850;DHT22;2951;47.712;9.400;2023-05-09T05:27:40;15.20;99.90
5850;DHT22;2951;47.712;9.400;2023-05-09T05:30:07;15.20;99.90
5850;DHT22;2951;47.712;9.400;2023-05-09T05:32:34;15.10;99.90
5850;DHT22;2951;47.712;9.400;2023-05-09T05:35:02;15.20;99.90
5850;DHT22;2951;47.712;9.400;2023-05-09T05:37:30;15.30;99.90
5850;DHT22;2951;47.712;9.400;2023-05-09T05:39:57;15.30;99.90
5850;DHT22;2951;47.712;9.400;2023-05-09T05:42:24;15.40;99.90
5850;DHT22;2951;47.712;9.400;2023-05-09T05:44:50;15.40;99.90
5850;DHT22;2951;47.712;9.400;2023-05-09T05:47:17;15.40;99.90
5850;DHT22;2951;47.712;9.400;2023-05-09T05:49:44;15.50;99.90
5850;DHT22;2951;47.712;9.400;2023-05-09T05:52:10;15.60;99.90
5850;DHT22;2951;47.712;9.400;2023-05-09T05:54:37;15.70;99.90
5850;DHT22;2951;47.712;9.400;2023-05-09T05:57:04;15.70;99.90
5850;DHT22;2951;47.712;9.400;2023-05-09T05:59:31;15.80;99.90
5850;DHT22;2951;47.712;9.400;2023-05-09T06:01:57;15.80;99.90
5850;DHT22;2951;47.712;9.400;2023-05-09T06:04:24;15.70;99.90
5850;DHT22;2951;47.712;9.400;2023-05-09T06:06:51;15.70;99.90
5850;DHT22;2951;47.712;9.400;2023-05-09T06:09:19;15.70;99.90
5850;DHT22;2951;47.712;9.400;2023-05-09T06:11:46;15.80;99.90
5850;DHT22;2951;47.712;9.400;2023-05-09T06:14:13;15.80;99.90
5850;DHT22;2951;47.712;9.400;2023-05-09T06:16:39;15.80;99.90
5850;DHT22;2951;47.712;9.400;2023-05-09T06:19:06;15.80;99.90
5850;DHT22;2951;47.712;9.400;2023-05-09T06:21:33;15.80;99.90
5850;DHT22;2951;47.712;9.400;2023-05-09T06:24:00;16.00;99.90
5850;DHT22;2951;47.712;9.400;2023-05-09T06:26:37;16.00;99.90
5850;DHT22;2951;47.712;9.400;2023-05-09T06:29:04;16.10;99.90
5850;DHT22;2951;47.712;9.400;2023-05-09T06:31:32;16.10;99.90
5850;DHT22;2951;47.712;9.400;2023-05-09T06:34:01;16.20;99.90
5850;DHT22;2951;47.712;9.400;2023-05-09T06:36:28;16.20;99.90
5850;DHT22;2951;47.712;9.400;2023-05-09T06:38:54;16.20;99.90
5850;DHT22;2951;47.712;9.400;2023-05-09T06:41:21;16.30;99.90
5850;DHT22;2951;47.712;9.400;2023-05-09T06:43:48;16.00;99.90
5850;DHT22;2951;47.712;9.400;2023-05-09T06:46:15;15.90;99.90
5850;DHT22;2951;47.712;9.400;2023-05-09T06:48:42;16.00;99.90
5850;DHT22;2951;47.712;9.400;2023-05-09T06:51:11;16.10;99.90
5850;DHT22;2951;47.712;9.400;2023-05-09T06:53:37;16.00;99.90
5850;DHT22;2951;47.712;9.400;2023-05-09T06:56:04;15.90;99.90
5850;DHT22;2951;47.712;9.400;2023-05-09T06:58:31;15.90;99.90
5850;DHT22;2951;47.712;9.400;2023-05-09T07:00:58;16.00;99.90
5850;DHT22;2951;47.712;9.400;2023-05-09T07:03:25;16.00;99.90
5850;DHT22;2951;47.712;9.400;2023-05-09T07:05:52;15.90;99.90
5850;DHT22;2951;47.712;9.400;2023-05-09T07:08:18;16.00;99.90
5850;DHT22;2951;47.712;9.400;2023-05-09T07:10:45;16.00;99.90
5850;DHT22;2951;47.712;9.400;2023-05-09T07:13:12;16.40;99.90
5850;DHT22;2951;47.712;9.400;2023-05-09T07:15:38;16.70;99.90
5850;DHT22;2951;47.712;9.400;2023-05-09T07:18:08;17.00;99.90
5850;DHT22;2951;47.712;9.400;2023-05-09T07:20:34;17.10;99.90
5850;DHT22;2951;47.712;9.400;2023-05-09T07:23:04;17.10;99.90
5850;DHT22;2951;47.712;9.400;2023-05-09T07:25:31;17.00;99.90
5850;DHT22;2951;47.712;9.400;2023-05-09T07:27:58;16.90;99.90
5850;DHT22;2951;47.712;9.400;2023-05-09T07:30:25;17.00;99.90
5850;DHT22;2951;47.712;9.400;2023-05-09T07:32:51;17.10;99.90
5850;DHT22;2951;47.712;9.400;2023-05-09T07:35:18;17.10;99.90
5850;DHT22;2951;47.712;9.400;2023-05-09T07:37:45;17.10;99.90
5850;DHT22;2951;47.712;9.400;2023-05-09T07:40:12;17.30;99.90
5850;DHT22;2951;47.712;9.400;2023-05-09T07:42:39;17.50;99.90
5850;DHT22;2951;47.712;9.400;2023-05-09T07:45:06;17.60;99.90
5850;DHT22;2951;47.712;9.400;2023-05-09T07:47:33;17.80;99.90
5850;DHT22;2951;47.712;9.400;2023-05-09T07:50:00;18.00;99.90
5850;DHT22;2951;47.712;9.400;2023-05-09T07:52:27;17.90;99.90
5850;DHT22;2951;47.712;9.400;2023-05-09T07:54:53;17.90;99.90
5850;DHT22;2951;47.712;9.400;2023-05-09T07:57:20;18.20;99.90
5850;DHT22;2951;47.712;9.400;2023-05-09T07:59:47;18.30;99.90
5850;DHT22;2951;47.712;9.400;2023-05-09T08:02:14;18.20;99.90
5850;DHT22;2951;47.712;9.400;2023-05-09T08:04:41;18.20;99.90
5850;DHT22;2951;47.712;9.400;2023-05-09T08:07:07;18.20;99.90
5850;DHT22;2951;47.712;9.400;2023-05-09T08:09:34;18.30;99.90
5850;DHT22;2951;47.712;9.400;2023-05-09T08:12:01;18.60;99.90
5850;DHT22;2951;47.712;9.400;2023-05-09T08:14:28;18.70;99.90
5850;DHT22;2951;47.712;9.400;2023-05-09T08:16:55;18.60;99.90
5850;DHT22;2951;47.712;9.400;2023-05-09T08:19:21;18.80;99.90
5850;DHT22;2951;47.712;9.400;2023-05-09T08:21:51;18.30;99.90
5850;DHT22;2951;47.712;9.400;2023-05-09T08:24:18;18.20;99.90
5850;DHT22;2951;47.712;9.400;2023-05-09T08:26:45;18.20;99.90
5850;DHT22;2951;47.712;9.400;2023-05-09T08:29:12;18.60;99.90
5850;DHT22;2951;47.712;9.400;2023-05-09T08:31:39;18.40;99.90
5850;DHT22;2951;47.712;9.400;2023-05-09T08:34:06;18.30;99.90
5850;DHT22;2951;47.712;9.400;2023-05-09T08:36:33;18.40;99.90
5850;DHT22;2951;47.712;9.400;2023-05-09T08:39:00;18.40;99.90
5850;DHT22;2951;47.712;9.400;2023-05-09T08:41:26;18.60;99.90
5850;DHT22;2951;47.712;9.400;2023-05-09T08:43:53;18.80;99.90
5850;DHT22;2951;47.712;9.400;2023-05-09T08:46:23;18.60;99.90
5850;DHT22;2951;47.712;9.400;2023-05-09T08:48:50;18.70;99.90
5850;DHT22;2951;47.712;9.400;2023-05-09T08:51:17;18.80;99.90
5850;DHT22;2951;47.712;9.400;2023-05-09T08:53:44;19.20;99.90
5850;DHT22;2951;47.712;9.400;2023-05-09T08:56:11;19.00;99.90
5850;DHT22;2951;47.712;9.400;2023-05-09T08:58:38;18.80;99.90
5850;DHT22;2951;47.712;9.400;2023-05-09T09:01:05;19.00;99.90
5850;DHT22;2951;47.712;9.400;2023-05-09T09:03:33;19.20;99.90
5850;DHT22;2951;47.712;9.400;2023-05-09T09:05:59;19.50;99.90
5850;DHT22;2951;47.712;9.400;2023-05-09T09:08:26;19.70;99.90
5850;DHT22;2951;47.712;9.400;2023-05-09T09:10:53;20.20;99.90
5850;DHT22;2951;47.712;9.400;2023-05-09T09:13:20;20.30;99.90
5850;DHT22;2951;47.712;9.400;2023-05-09T09:15:47;20.20;99.90
5850;DHT22;2951;47.712;9.400;2023-05-09T09:18:15;20.50;99.90
5850;DHT22;2951;47.712;9.400;2023-05-09T09:20:47;20.70;99.90
5850;DHT22;2951;47.712;9.400;2023-05-09T09:23:16;20.30;99.90
5850;DHT22;2951;47.712;9.400;2023-05-09T09:25:44;20.40;99.90
5850;DHT22;2951;47.712;9.400;2023-05-09T09:28:11;20.30;99.90
5850;DHT22;2951;47.712;9.400;2023-05-09T09:30:46;20.40;99.90
5850;DHT22;2951;47.712;9.400;2023-05-09T09:33:20;20.40;99.90
5850;DHT22;2951;47.712;9.400;2023-05-09T09:35:50;20.70;99.90
5850;DHT22;2951;47.712;9.400;2023-05-09T09:38:18;20.70;99.90
5850;DHT22;2951;47.712;9.400;2023-05-09T09:43:14;21.00;99.90
5850;DHT22;2951;47.712;9.400;2023-05-09T09:45:41;20.90;99.90
5850;DHT22;2951;47.712;9.400;2023-05-09T09:48:08;20.80;99.90
5850;DHT22;2951;47.712;9.400;2023-05-09T09:50:35;20.80;99.90
5850;DHT22;2951;47.712;9.400;2023-05-09T09:53:02;20.70;99.90
5850;DHT22;2951;47.712;9.400;2023-05-09T09:55:30;21.10;99.90
5850;DHT22;2951;47.712;9.400;2023-05-09T09:57:57;21.20;99.90
5850;DHT22;2951;47.712;9.400;2023-05-09T10:00:24;21.20;99.90
5850;DHT22;2951;47.712;9.400;2023-05-09T10:02:54;21.00;99.90
5850;DHT22;2951;47.712;9.400;2023-05-09T10:05:21;21.10;99.90
5850;DHT22;2951;47.712;9.400;2023-05-09T10:07:49;20.90;99.90
5850;DHT22;2951;47.712;9.400;2023-05-09T10:10:17;20.90;99.90
5850;DHT22;2951;47.712;9.400;2023-05-09T10:12:44;21.20;99.90
5850;DHT22;2951;47.712;9.400;2023-05-09T10:15:11;21.10;99.90
5850;DHT22;2951;47.712;9.400;2023-05-09T10:17:38;21.10;99.90
5850;DHT22;2951;47.712;9.400;2023-05-09T10:20:06;21.20;99.90
5850;DHT22;2951;47.712;9.400;2023-05-09T10:22:33;21.40;99.90
5850;DHT22;2951;47.712;9.400;2023-05-09T10:25:02;21.40;99.90
5850;DHT22;2951;47.712;9.400;2023-05-09T10:27:34;21.00;99.90
5850;DHT22;2951;47.712;9.400;2023-05-09T10:30:02;21.10;99.90
5850;DHT22;2951;47.712;9.400;2023-05-09T10:32:31;21.20;99.90
5850;DHT22;2951;47.712;9.400;2023-05-09T10:35:03;21.30;99.90
5850;DHT22;2951;47.712;9.400;2023-05-09T10:37:31;21.30;99.90
5850;DHT22;2951;47.712;9.400;2023-05-09T10:40:00;21.30;99.90
5850;DHT22;2951;47.712;9.400;2023-05-09T10:42:28;21.40;99.90
5850;DHT22;2951;47.712;9.400;2023-05-09T10:44:55;21.30;99.90
5850;DHT22;2951;47.712;9.400;2023-05-09T10:47:22;21.40;99.90
5850;DHT22;2951;47.712;9.400;2023-05-09T10:49:52;21.60;99.90
5850;DHT22;2951;47.712;9.400;2023-05-09T10:52:22;21.80;99.90
5850;DHT22;2951;47.712;9.400;2023-05-09T10:54:59;21.30;99.90
5850;DHT22;2951;47.712;9.400;2023-05-09T10:57:27;21.10;99.90
5850;DHT22;2951;47.712;9.400;2023-05-09T10:59:55;21.30;99.90
5850;DHT22;2951;47.712;9.400;2023-05-09T11:02:22;21.50;99.90
5850;DHT22;2951;47.712;9.400;2023-05-09T11:05:12;21.60;99.90
5850;DHT22;2951;47.712;9.400;2023-05-09T11:07:39;21.50;99.90
5850;DHT22;2951;47.712;9.400;2023-05-09T11:10:13;21.40;99.90
5850;DHT22;2951;47.712;9.400;2023-05-09T11:13:01;21.40;99.90
5850;DHT22;2951;47.712;9.400;2023-05-09T11:15:28;21.70;99.90
5850;DHT22;2951;47.712;9.400;2023-05-09T11:20:51;21.60;99.90
5850;DHT22;2951;47.712;9.400;2023-05-09T11:23:18;21.90;99.90
5850;DHT22;2951;47.712;9.400;2023-05-09T11:25:45;21.70;99.90
5850;DHT22;2951;47.712;9.400;2023-05-09T11:28:29;21.60;99.90
5850;DHT22;2951;47.712;9.400;2023-05-09T11:31:13;21.80;99.90
5850;DHT22;2951;47.712;9.400;2023-05-09T11:33:41;22.00;99.90
5850;DHT22;2951;47.712;9.400;2023-05-09T11:38:41;22.60;99.90
5850;DHT22;2951;47.712;9.400;2023-05-09T11:41:08;22.60;99.90
5850;DHT22;2951;47.712;9.400;2023-05-09T11:43:35;22.10;99.90
5850;DHT22;2951;47.712;9.400;2023-05-09T11:46:02;21.90;99.90
5850;DHT22;2951;47.712;9.400;2023-05-09T11:48:29;21.90;99.90
5850;DHT22;2951;47.712;9.400;2023-05-09T11:50:56;21.90;99.90
5850;DHT22;2951;47.712;9.400;2023-05-09T11:53:23;22.40;99.90
5850;DHT22;2951;47.712;9.400;2023-05-09T11:55:49;22.50;99.90
5850;DHT22;2951;47.712;9.400;2023-05-09T11:58:16;22.60;99.90
5850;DHT22;2951;47.712;9.400;2023-05-09T12:00:44;23.00;99.90
5850;DHT22;2951;47.712;9.400;2023-05-09T12:03:10;23.10;99.90
5850;DHT22;2951;47.712;9.400;2023-05-09T12:05:38;22.70;99.90
5850;DHT22;2951;47.712;9.400;2023-05-09T12:08:05;22.80;99.90
5850;DHT22;2951;47.712;9.400;2023-05-09T12:10:32;22.60;99.90
5850;DHT22;2951;47.712;9.400;2023-05-09T12:13:01;23.20;99.90
5850;DHT22;2951;47.712;9.400;2023-05-09T12:15:28;23.40;99.90
5850;DHT22;2951;47.712;9.400;2023-05-09T12:18:01;23.30;99.90
5850;DHT22;2951;47.712;9.400;2023-05-09T12:20:46;23.40;99.90
5850;DHT22;2951;47.712;9.400;2023-05-09T12:23:13;23.70;99.90
5850;DHT22;2951;47.712;9.400;2023-05-09T12:25:53;23.70;99.90
5850;DHT22;2951;47.712;9.400;2023-05-09T12:28:21;23.50;99.90
5850;DHT22;2951;47.712;9.400;2023-05-09T12:30:48;23.00;99.90
5850;DHT22;2951;47.712;9.400;2023-05-09T12:33:15;23.20;99.90
5850;DHT22;2951;47.712;9.400;2023-05-09T12:35:45;22.80;99.90
5850;DHT22;2951;47.712;9.400;2023-05-09T12:38:22;22.70;99.90
5850;DHT22;2951;47.712;9.400;2023-05-09T12:40:49;22.60;99.90
5850;DHT22;2951;47.712;9.400;2023-05-09T12:43:28;22.60;99.90
5850;DHT22;2951;47.712;9.400;2023-05-09T12:45:56;22.60;99.90
5850;DHT22;2951;47.712;9.400;2023-05-09T12:48:23;22.80;99.90
5850;DHT22;2951;47.712;9.400;2023-05-09T12:50:50;22.80;99.90
5850;DHT22;2951;47.712;9.400;2023-05-09T12:53:26;23.00;99.90
5850;DHT22;2951;47.712;9.400;2023-05-09T12:56:02;23.20;99.90
5850;DHT22;2951;47.712;9.400;2023-05-09T12:58:30;23.40;99.90
5850;DHT22;2951;47.712;9.400;2023-05-09T13:00:57;23.60;99.90
5850;DHT22;2951;47.712;9.400;2023-05-09T13:03:25;23.70;99.90
5850;DHT22;2951;47.712;9.400;2023-05-09T13:05:53;23.50;99.90
5850;DHT22;2951;47.712;9.400;2023-05-09T13:08:20;23.30;99.90
5850;DHT22;2951;47.712;9.400;2023-05-09T13:10:47;23.40;99.90
5850;DHT22;2951;47.712;9.400;2023-05-09T13:13:17;23.40;99.90
5850;DHT22;2951;47.712;9.400;2023-05-09T13:15:45;23.60;99.90
5850;DHT22;2951;47.712;9.400;2023-05-09T13:18:12;23.50;99.90
5850;DHT22;2951;47.712;9.400;2023-05-09T13:20:39;23.50;99.90
5850;DHT22;2951;47.712;9.400;2023-05-09T13:23:06;23.50;99.90
5850;DHT22;2951;47.712;9.400;2023-05-09T13:25:32;23.80;99.90
5850;DHT22;2951;47.712;9.400;2023-05-09T13:27:59;23.80;99.90
5850;DHT22;2951;47.712;9.400;2023-05-09T13:30:26;23.50;99.90
5850;DHT22;2951;47.712;9.400;2023-05-09T13:32:52;23.60;99.90
5850;DHT22;2951;47.712;9.400;2023-05-09T13:35:19;23.50;99.90
5850;DHT22;2951;47.712;9.400;2023-05-09T13:37:46;23.40;99.90
5850;DHT22;2951;47.712;9.400;2023-05-09T13:40:13;23.30;99.90
5850;DHT22;2951;47.712;9.400;2023-05-09T13:42:39;23.60;99.90
5850;DHT22;2951;47.712;9.400;2023-05-09T13:45:06;23.60;99.90
5850;DHT22;2951;47.712;9.400;2023-05-09T13:47:33;23.60;99.90
5850;DHT22;2951;47.712;9.400;2023-05-09T13:50:03;23.50;99.90
5850;DHT22;2951;47.712;9.400;2023-05-09T13:52:30;23.50;99.90
5850;DHT22;2951;47.712;9.400;2023-05-09T13:54:56;23.60;99.90
5850;DHT22;2951;47.712;9.400;2023-05-09T13:57:23;23.50;99.90
5850;DHT22;2951;47.712;9.400;2023-05-09T13:59:50;23.60;99.90
5850;DHT22;2951;47.712;9.400;2023-05-09T14:02:17;23.70;99.90
5850;DHT22;2951;47.712;9.400;2023-05-09T14:04:44;24.10;99.90
5850;DHT22;2951;47.712;9.400;2023-05-09T14:07:10;24.10;99.90
5850;DHT22;2951;47.712;9.400;2023-05-09T14:09:39;24.70;99.90
5850;DHT22;2951;47.712;9.400;2023-05-09T14:12:05;24.70;99.90
5850;DHT22;2951;47.712;9.400;2023-05-09T14:14:32;24.60;99.90
5850;DHT22;2951;47.712;9.400;2023-05-09T14:16:59;24.20;99.90
5850;DHT22;2951;47.712;9.400;2023-05-09T14:19:27;24.20;99.90
5850;DHT22;2951;47.712;9.400;2023-05-09T14:21:54;24.20;99.90
5850;DHT22;2951;47.712;9.400;2023-05-09T14:24:21;24.20;99.90
5850;DHT22;2951;47.712;9.400;2023-05-09T14:26:47;23.80;99.90
5850;DHT22;2951;47.712;9.400;2023-05-09T14:29:15;23.80;99.90
5850;DHT22;2951;47.712;9.400;2023-05-09T14:31:42;23.80;99.90
5850;DHT22;2951;47.712;9.400;2023-05-09T14:34:08;23.60;99.90
5850;DHT22;2951;47.712;9.400;2023-05-09T14:36:36;23.50;99.90
5850;DHT22;2951;47.712;9.400;2023-05-09T14:39:03;23.60;99.90
5850;DHT22;2951;47.712;9.400;2023-05-09T14:41:30;23.50;99.90
5850;DHT22;2951;47.712;9.400;2023-05-09T14:43:57;23.70;99.90
5850;DHT22;2951;47.712;9.400;2023-05-09T14:46:24;23.70;99.90
5850;DHT22;2951;47.712;9.400;2023-05-09T14:48:51;23.90;99.90
5850;DHT22;2951;47.712;9.400;2023-05-09T14:51:18;23.80;99.90
5850;DHT22;2951;47.712;9.400;2023-05-09T14:53:45;24.00;99.90
5850;DHT22;2951;47.712;9.400;2023-05-09T14:56:12;24.10;99.90
5850;DHT22;2951;47.712;9.400;2023-05-09T14:58:39;23.70;99.90
5850;DHT22;2951;47.712;9.400;2023-05-09T15:01:06;23.60;99.90
5850;DHT22;2951;47.712;9.400;2023-05-09T15:03:33;23.50;99.90
5850;DHT22;2951;47.712;9.400;2023-05-09T15:05:59;23.60;99.90
5850;DHT22;2951;47.712;9.400;2023-05-09T15:08:27;23.60;99.90
5850;DHT22;2951;47.712;9.400;2023-05-09T15:10:54;23.60;99.90
5850;DHT22;2951;47.712;9.400;2023-05-09T15:13:22;23.60;99.90
5850;DHT22;2951;47.712;9.400;2023-05-09T15:15:49;23.60;99.90
5850;DHT22;2951;47.712;9.400;2023-05-09T15:18:15;23.40;99.90
5850;DHT22;2951;47.712;9.400;2023-05-09T15:20:44;23.20;99.90
5850;DHT22;2951;47.712;9.400;2023-05-09T15:23:11;23.00;99.90
5850;DHT22;2951;47.712;9.400;2023-05-09T15:25:39;23.10;99.90
5850;DHT22;2951;47.712;9.400;2023-05-09T15:28:07;23.00;99.90
5850;DHT22;2951;47.712;9.400;2023-05-09T15:30:33;22.90;99.90
5850;DHT22;2951;47.712;9.400;2023-05-09T15:33:03;22.60;99.90
5850;DHT22;2951;47.712;9.400;2023-05-09T15:35:30;22.70;99.90
5850;DHT22;2951;47.712;9.400;2023-05-09T15:37:57;22.40;99.90
5850;DHT22;2951;47.712;9.400;2023-05-09T15:40:24;22.20;99.90
5850;DHT22;2951;47.712;9.400;2023-05-09T15:42:51;22.20;99.90
5850;DHT22;2951;47.712;9.400;2023-05-09T15:45:17;22.30;99.90
5850;DHT22;2951;47.712;9.400;2023-05-09T15:47:44;22.40;99.90
5850;DHT22;2951;47.712;9.400;2023-05-09T15:50:11;22.20;99.90
5850;DHT22;2951;47.712;9.400;2023-05-09T15:52:38;22.00;99.90
5850;DHT22;2951;47.712;9.400;2023-05-09T15:55:05;21.90;99.90
5850;DHT22;2951;47.712;9.400;2023-05-09T15:57:32;21.70;99.90
5850;DHT22;2951;47.712;9.400;2023-05-09T15:59:59;21.70;99.90
5850;DHT22;2951;47.712;9.400;2023-05-09T16:02:26;21.50;99.90
5850;DHT22;2951;47.712;9.400;2023-05-09T16:04:53;21.50;99.90
5850;DHT22;2951;47.712;9.400;2023-05-09T16:07:20;21.30;99.90
5850;DHT22;2951;47.712;9.400;2023-05-09T16:09:47;21.30;99.90
5850;DHT22;2951;47.712;9.400;2023-05-09T16:12:14;21.20;99.90
5850;DHT22;2951;47.712;9.400;2023-05-09T16:14:41;21.30;99.90
5850;DHT22;2951;47.712;9.400;2023-05-09T16:17:08;21.20;99.90
5850;DHT22;2951;47.712;9.400;2023-05-09T16:19:34;21.10;99.90
5850;DHT22;2951;47.712;9.400;2023-05-09T16:22:02;21.00;99.90
5850;DHT22;2951;47.712;9.400;2023-05-09T16:24:28;20.80;99.90